sensor_id;sensor_type;location;lat;lon;timestamp;P1;durP1;ratioP1;P2;durP2;ratioP2
43297;SDS011;28892;55.640;37.532;2022-08-01T00:00:35;7.90;;;4.97;;
43297;SDS011;28892;55.640;37.532;2022-08-01T00:03:01;6.07;;;4.32;;
43297;SDS011;28892;55.640;37.532;2022-08-01T00:05:27;5.88;;;4.68;;
43297;SDS011;28892;55.640;37.532;2022-08-01T00:07:52;10.45;;;5.07;;
43297;SDS011;28892;55.640;37.532;2022-08-01T00:10:18;6.88;;;4.60;;
43297;SDS011;28892;55.640;37.532;2022-08-01T00:12:45;7.78;;;4.93;;
43297;SDS011;28892;55.640;37.532;2022-08-01T00:15:12;8.65;;;4.68;;
43297;SDS011;28892;55.640;37.532;2022-08-01T00:17:40;12.55;;;4.82;;
43297;SDS011;28892;55.640;37.532;2022-08-01T00:20:07;7.20;;;4.68;;
43297;SDS011;28892;55.640;37.532;2022-08-01T00:22:34;5.85;;;4.30;;
43297;SDS011;28892;55.640;37.532;2022-08-01T00:25:01;7.80;;;4.68;;
43297;SDS011;28892;55.640;37.532;2022-08-01T00:27:28;10.55;;;5.13;;
43297;SDS011;28892;55.640;37.532;2022-08-01T00:29:54;6.75;;;5.18;;
43297;SDS011;28892;55.640;37.532;2022-08-01T00:32:20;9.18;;;5.47;;
43297;SDS011;28892;55.640;37.532;2022-08-01T00:34:45;8.48;;;5.15;;
43297;SDS011;28892;55.640;37.532;2022-08-01T00:37:11;12.02;;;5.75;;
43297;SDS011;28892;55.640;37.532;2022-08-01T00:39:37;9.93;;;5.32;;
43297;SDS011;28892;55.640;37.532;2022-08-01T00:42:07;9.23;;;5.43;;
43297;SDS011;28892;55.640;37.532;2022-08-01T00:44:34;10.48;;;5.40;;
43297;SDS011;28892;55.640;37.532;2022-08-01T00:47:00;7.93;;;5.28;;
43297;SDS011;28892;55.640;37.532;2022-08-01T00:49:26;8.50;;;5.20;;
43297;SDS011;28892;55.640;37.532;2022-08-01T00:51:53;8.32;;;5.25;;
43297;SDS011;28892;55.640;37.532;2022-08-01T00:54:19;8.07;;;4.68;;
43297;SDS011;28892;55.640;37.532;2022-08-01T00:56:45;8.52;;;5.47;;
43297;SDS011;28892;55.640;37.532;2022-08-01T00:59:11;8.02;;;5.40;;
43297;SDS011;28892;55.640;37.532;2022-08-01T01:01:37;6.38;;;5.43;;
43297;SDS011;28892;55.640;37.532;2022-08-01T01:04:03;9.32;;;5.55;;
43297;SDS011;28892;55.640;37.532;2022-08-01T01:17:39;9.15;;;5.45;;
43297;SDS011;28892;55.640;37.532;2022-08-01T01:20:12;7.82;;;5.30;;
43297;SDS011;28892;55.640;37.532;2022-08-01T01:28:14;8.15;;;4.93;;
43297;SDS011;28892;55.640;37.532;2022-08-01T01:30:49;9.67;;;5.20;;
43297;SDS011;28892;55.640;37.532;2022-08-01T01:33:19;8.30;;;4.90;;
43297;SDS011;28892;55.640;37.532;2022-08-01T01:35:51;7.95;;;4.97;;
43297;SDS011;28892;55.640;37.532;2022-08-01T01:38:21;6.60;;;5.13;;
43297;SDS011;28892;55.640;37.532;2022-08-01T01:40:51;10.55;;;4.70;;
43297;SDS011;28892;55.640;37.532;2022-08-01T01:43:18;6.70;;;4.75;;
43297;SDS011;28892;55.640;37.532;2022-08-01T01:45:48;6.75;;;4.65;;
43297;SDS011;28892;55.640;37.532;2022-08-01T01:48:16;8.45;;;4.85;;
43297;SDS011;28892;55.640;37.532;2022-08-01T01:50:44;5.18;;;4.30;;
43297;SDS011;28892;55.640;37.532;2022-08-01T01:53:12;8.52;;;4.35;;
43297;SDS011;28892;55.640;37.532;2022-08-01T01:55:40;7.93;;;4.30;;
43297;SDS011;28892;55.640;37.532;2022-08-01T01:58:08;4.97;;;3.97;;
43297;SDS011;28892;55.640;37.532;2022-08-01T02:00:37;6.47;;;4.18;;
43297;SDS011;28892;55.640;37.532;2022-08-01T02:03:05;10.05;;;4.45;;
43297;SDS011;28892;55.640;37.532;2022-08-01T02:05:35;7.40;;;4.28;;
43297;SDS011;28892;55.640;37.532;2022-08-01T02:08:03;5.32;;;4.20;;
43297;SDS011;28892;55.640;37.532;2022-08-01T02:10:30;7.68;;;4.60;;
43297;SDS011;28892;55.640;37.532;2022-08-01T02:12:57;8.75;;;4.82;;
43297;SDS011;28892;55.640;37.532;2022-08-01T02:15:25;6.25;;;4.13;;
43297;SDS011;28892;55.640;37.532;2022-08-01T02:17:53;5.70;;;4.45;;
43297;SDS011;28892;55.640;37.532;2022-08-01T02:20:21;7.07;;;4.35;;
43297;SDS011;28892;55.640;37.532;2022-08-01T02:22:52;6.57;;;4.82;;
43297;SDS011;28892;55.640;37.532;2022-08-01T02:25:31;7.50;;;4.93;;
43297;SDS011;28892;55.640;37.532;2022-08-01T02:28:07;9.10;;;5.20;;
43297;SDS011;28892;55.640;37.532;2022-08-01T02:30:39;9.65;;;5.13;;
43297;SDS011;28892;55.640;37.532;2022-08-01T02:33:14;9.30;;;5.00;;
43297;SDS011;28892;55.640;37.532;2022-08-01T02:35:43;7.40;;;5.07;;
43297;SDS011;28892;55.640;37.532;2022-08-01T02:38:16;8.77;;;5.35;;
43297;SDS011;28892;55.640;37.532;2022-08-01T02:40:45;9.18;;;5.18;;
43297;SDS011;28892;55.640;37.532;2022-08-01T02:43:12;11.65;;;5.80;;
43297;SDS011;28892;55.640;37.532;2022-08-01T02:45:43;8.82;;;5.32;;
43297;SDS011;28892;55.640;37.532;2022-08-01T02:48:15;10.75;;;5.72;;
43297;SDS011;28892;55.640;37.532;2022-08-01T02:50:44;11.77;;;5.95;;
43297;SDS011;28892;55.640;37.532;2022-08-01T02:53:12;9.75;;;5.60;;
43297;SDS011;28892;55.640;37.532;2022-08-01T02:55:42;9.10;;;5.65;;
43297;SDS011;28892;55.640;37.532;2022-08-01T02:58:14;9.15;;;6.00;;
43297;SDS011;28892;55.640;37.532;2022-08-01T03:00:44;8.05;;;5.70;;
43297;SDS011;28892;55.640;37.532;2022-08-01T03:03:11;10.73;;;5.72;;
43297;SDS011;28892;55.640;37.532;2022-08-01T03:05:38;10.40;;;5.85;;
43297;SDS011;28892;55.640;37.532;2022-08-01T03:08:06;8.38;;;5.68;;
43297;SDS011;28892;55.640;37.532;2022-08-01T03:10:32;7.82;;;5.03;;
43297;SDS011;28892;55.640;37.532;2022-08-01T03:13:00;9.32;;;5.45;;
43297;SDS011;28892;55.640;37.532;2022-08-01T03:15:29;10.05;;;5.78;;
43297;SDS011;28892;55.640;37.532;2022-08-01T03:17:57;8.52;;;5.72;;
43297;SDS011;28892;55.640;37.532;2022-08-01T03:20:26;8.60;;;5.18;;
43297;SDS011;28892;55.640;37.532;2022-08-01T03:22:53;10.57;;;6.00;;
43297;SDS011;28892;55.640;37.532;2022-08-01T03:25:20;10.15;;;5.80;;
43297;SDS011;28892;55.640;37.532;2022-08-01T03:27:47;8.07;;;5.10;;
43297;SDS011;28892;55.640;37.532;2022-08-01T03:32:45;7.90;;;5.20;;
43297;SDS011;28892;55.640;37.532;2022-08-01T03:35:11;10.20;;;5.43;;
43297;SDS011;28892;55.640;37.532;2022-08-01T03:37:41;8.60;;;4.95;;
43297;SDS011;28892;55.640;37.532;2022-08-01T03:43:00;6.53;;;4.70;;
43297;SDS011;28892;55.640;37.532;2022-08-01T03:45:30;6.57;;;4.85;;
43297;SDS011;28892;55.640;37.532;2022-08-01T03:48:00;8.27;;;4.88;;
43297;SDS011;28892;55.640;37.532;2022-08-01T03:50:29;5.00;;;4.40;;
43297;SDS011;28892;55.640;37.532;2022-08-01T03:52:59;7.85;;;5.15;;
43297;SDS011;28892;55.640;37.532;2022-08-01T03:55:27;10.30;;;4.65;;
43297;SDS011;28892;55.640;37.532;2022-08-01T03:57:55;7.45;;;4.78;;
43297;SDS011;28892;55.640;37.532;2022-08-01T04:00:22;6.78;;;4.80;;
43297;SDS011;28892;55.640;37.532;2022-08-01T04:02:51;7.65;;;4.75;;
43297;SDS011;28892;55.640;37.532;2022-08-01T04:05:18;8.68;;;5.03;;
43297;SDS011;28892;55.640;37.532;2022-08-01T04:07:48;6.90;;;4.70;;
43297;SDS011;28892;55.640;37.532;2022-08-01T04:10:24;8.07;;;5.30;;
43297;SDS011;28892;55.640;37.532;2022-08-01T04:12:50;7.32;;;4.38;;
43297;SDS011;28892;55.640;37.532;2022-08-01T04:15:16;6.63;;;4.65;;
43297;SDS011;28892;55.640;37.532;2022-08-01T04:17:42;8.20;;;5.20;;
43297;SDS011;28892;55.640;37.532;2022-08-01T04:20:08;6.95;;;4.55;;
43297;SDS011;28892;55.640;37.532;2022-08-01T04:22:34;6.55;;;4.38;;
43297;SDS011;28892;55.640;37.532;2022-08-01T04:25:02;6.63;;;4.50;;
43297;SDS011;28892;55.640;37.532;2022-08-01T04:27:36;8.48;;;4.95;;
43297;SDS011;28892;55.640;37.532;2022-08-01T04:30:04;8.65;;;4.38;;
43297;SDS011;28892;55.640;37.532;2022-08-01T04:32:33;7.10;;;4.03;;
43297;SDS011;28892;55.640;37.532;2022-08-01T04:35:02;5.47;;;3.60;;
43297;SDS011;28892;55.640;37.532;2022-08-01T04:37:31;5.22;;;3.70;;
43297;SDS011;28892;55.640;37.532;2022-08-01T04:39:58;5.95;;;3.88;;
43297;SDS011;28892;55.640;37.532;2022-08-01T04:42:26;7.82;;;4.05;;
43297;SDS011;28892;55.640;37.532;2022-08-01T04:44:52;6.90;;;3.60;;
43297;SDS011;28892;55.640;37.532;2022-08-01T04:47:18;4.43;;;3.33;;
43297;SDS011;28892;55.640;37.532;2022-08-01T04:49:45;4.63;;;3.10;;
43297;SDS011;28892;55.640;37.532;2022-08-01T04:52:11;6.10;;;3.22;;
43297;SDS011;28892;55.640;37.532;2022-08-01T04:54:37;6.32;;;2.95;;
43297;SDS011;28892;55.640;37.532;2022-08-01T04:57:03;4.53;;;2.72;;
43297;SDS011;28892;55.640;37.532;2022-08-01T04:59:30;5.13;;;2.72;;
43297;SDS011;28892;55.640;37.532;2022-08-01T05:02:07;6.10;;;3.00;;
43297;SDS011;28892;55.640;37.532;2022-08-01T05:04:41;7.68;;;2.80;;
43297;SDS011;28892;55.640;37.532;2022-08-01T05:07:08;5.10;;;2.90;;
43297;SDS011;28892;55.640;37.532;2022-08-01T05:09:34;6.43;;;3.05;;
43297;SDS011;28892;55.640;37.532;2022-08-01T05:12:04;5.00;;;2.53;;
43297;SDS011;28892;55.640;37.532;2022-08-01T05:14:31;5.50;;;2.53;;
43297;SDS011;28892;55.640;37.532;2022-08-01T05:17:01;5.05;;;2.47;;
43297;SDS011;28892;55.640;37.532;2022-08-01T05:19:29;3.00;;;2.40;;
43297;SDS011;28892;55.640;37.532;2022-08-01T05:21:59;4.50;;;2.30;;
43297;SDS011;28892;55.640;37.532;2022-08-01T05:24:30;7.20;;;2.53;;
43297;SDS011;28892;55.640;37.532;2022-08-01T05:26:56;7.60;;;2.50;;
43297;SDS011;28892;55.640;37.532;2022-08-01T05:29:23;5.95;;;3.17;;
43297;SDS011;28892;55.640;37.532;2022-08-01T05:31:49;5.05;;;2.40;;
43297;SDS011;28892;55.640;37.532;2022-08-01T05:34:15;6.13;;;2.97;;
43297;SDS011;28892;55.640;37.532;2022-08-01T05:36:41;4.03;;;3.25;;
43297;SDS011;28892;55.640;37.532;2022-08-01T05:39:07;4.55;;;2.50;;
43297;SDS011;28892;55.640;37.532;2022-08-01T05:41:33;6.20;;;2.42;;
43297;SDS011;28892;55.640;37.532;2022-08-01T05:43:59;8.65;;;2.78;;
43297;SDS011;28892;55.640;37.532;2022-08-01T05:46:25;6.40;;;2.80;;
43297;SDS011;28892;55.640;37.532;2022-08-01T05:48:50;7.10;;;2.70;;
43297;SDS011;28892;55.640;37.532;2022-08-01T05:51:16;4.47;;;2.55;;
43297;SDS011;28892;55.640;37.532;2022-08-01T05:53:42;5.72;;;2.40;;
43297;SDS011;28892;55.640;37.532;2022-08-01T05:56:07;6.88;;;2.67;;
43297;SDS011;28892;55.640;37.532;2022-08-01T05:58:33;6.53;;;2.58;;
43297;SDS011;28892;55.640;37.532;2022-08-01T06:00:59;6.47;;;2.78;;
43297;SDS011;28892;55.640;37.532;2022-08-01T06:03:24;4.85;;;2.67;;
43297;SDS011;28892;55.640;37.532;2022-08-01T06:05:53;6.28;;;2.88;;
43297;SDS011;28892;55.640;37.532;2022-08-01T06:08:19;5.38;;;2.90;;
43297;SDS011;28892;55.640;37.532;2022-08-01T06:10:45;4.18;;;2.70;;
43297;SDS011;28892;55.640;37.532;2022-08-01T06:13:10;6.35;;;2.85;;
43297;SDS011;28892;55.640;37.532;2022-08-01T06:15:36;5.95;;;3.33;;
43297;SDS011;28892;55.640;37.532;2022-08-01T06:18:02;6.15;;;3.58;;
43297;SDS011;28892;55.640;37.532;2022-08-01T06:20:28;6.63;;;3.95;;
43297;SDS011;28892;55.640;37.532;2022-08-01T06:22:54;8.90;;;3.50;;
43297;SDS011;28892;55.640;37.532;2022-08-01T06:25:20;6.80;;;4.13;;
43297;SDS011;28892;55.640;37.532;2022-08-01T06:27:45;7.75;;;3.90;;
43297;SDS011;28892;55.640;37.532;2022-08-01T06:30:11;9.75;;;4.22;;
43297;SDS011;28892;55.640;37.532;2022-08-01T06:32:37;8.00;;;4.55;;
43297;SDS011;28892;55.640;37.532;2022-08-01T06:35:03;7.38;;;4.75;;
43297;SDS011;28892;55.640;37.532;2022-08-01T06:37:29;8.93;;;4.20;;
43297;SDS011;28892;55.640;37.532;2022-08-01T06:39:59;8.25;;;4.50;;
43297;SDS011;28892;55.640;37.532;2022-08-01T06:42:29;7.95;;;4.53;;
43297;SDS011;28892;55.640;37.532;2022-08-01T06:44:57;10.18;;;4.53;;
43297;SDS011;28892;55.640;37.532;2022-08-01T06:47:23;6.35;;;4.30;;
43297;SDS011;28892;55.640;37.532;2022-08-01T06:49:48;11.15;;;3.90;;
43297;SDS011;28892;55.640;37.532;2022-08-01T06:52:14;4.80;;;3.65;;
43297;SDS011;28892;55.640;37.532;2022-08-01T06:54:39;10.32;;;3.78;;
43297;SDS011;28892;55.640;37.532;2022-08-01T06:57:05;5.22;;;3.40;;
43297;SDS011;28892;55.640;37.532;2022-08-01T06:59:31;6.20;;;3.15;;
43297;SDS011;28892;55.640;37.532;2022-08-01T07:01:57;4.55;;;3.03;;
43297;SDS011;28892;55.640;37.532;2022-08-01T07:04:23;7.10;;;3.28;;
43297;SDS011;28892;55.640;37.532;2022-08-01T07:06:49;5.35;;;3.40;;
43297;SDS011;28892;55.640;37.532;2022-08-01T07:09:14;5.45;;;3.05;;
43297;SDS011;28892;55.640;37.532;2022-08-01T07:11:40;6.88;;;3.08;;
43297;SDS011;28892;55.640;37.532;2022-08-01T07:14:06;6.53;;;3.05;;
43297;SDS011;28892;55.640;37.532;2022-08-01T07:16:32;5.63;;;3.58;;
43297;SDS011;28892;55.640;37.532;2022-08-01T07:18:57;4.07;;;2.55;;
43297;SDS011;28892;55.640;37.532;2022-08-01T07:21:23;5.05;;;2.97;;
43297;SDS011;28892;55.640;37.532;2022-08-01T07:23:48;5.95;;;2.92;;
43297;SDS011;28892;55.640;37.532;2022-08-01T07:26:14;3.30;;;2.80;;
43297;SDS011;28892;55.640;37.532;2022-08-01T07:28:40;6.70;;;2.60;;
43297;SDS011;28892;55.640;37.532;2022-08-01T07:31:06;2.95;;;2.45;;
43297;SDS011;28892;55.640;37.532;2022-08-01T07:33:31;4.18;;;2.30;;
43297;SDS011;28892;55.640;37.532;2022-08-01T07:35:57;8.85;;;2.50;;
43297;SDS011;28892;55.640;37.532;2022-08-01T07:38:23;5.13;;;2.28;;
43297;SDS011;28892;55.640;37.532;2022-08-01T07:40:48;6.80;;;2.50;;
43297;SDS011;28892;55.640;37.532;2022-08-01T07:43:14;3.85;;;2.53;;
43297;SDS011;28892;55.640;37.532;2022-08-01T07:45:40;6.53;;;2.40;;
43297;SDS011;28892;55.640;37.532;2022-08-01T07:48:06;5.57;;;2.50;;
43297;SDS011;28892;55.640;37.532;2022-08-01T07:50:33;4.88;;;2.50;;
43297;SDS011;28892;55.640;37.532;2022-08-01T07:52:59;4.93;;;2.33;;
43297;SDS011;28892;55.640;37.532;2022-08-01T07:55:25;7.60;;;2.70;;
43297;SDS011;28892;55.640;37.532;2022-08-01T07:57:51;4.82;;;2.65;;
43297;SDS011;28892;55.640;37.532;2022-08-01T08:00:17;5.82;;;2.50;;
43297;SDS011;28892;55.640;37.532;2022-08-01T08:02:43;4.28;;;2.58;;
43297;SDS011;28892;55.640;37.532;2022-08-01T08:05:10;4.93;;;2.78;;
43297;SDS011;28892;55.640;37.532;2022-08-01T08:07:36;7.68;;;2.90;;
43297;SDS011;28892;55.640;37.532;2022-08-01T08:10:02;4.38;;;2.90;;
43297;SDS011;28892;55.640;37.532;2022-08-01T08:12:29;8.88;;;2.97;;
43297;SDS011;28892;55.640;37.532;2022-08-01T08:14:55;8.43;;;3.65;;
43297;SDS011;28892;55.640;37.532;2022-08-01T08:17:23;3.90;;;2.45;;
43297;SDS011;28892;55.640;37.532;2022-08-01T08:19:50;6.35;;;2.65;;
43297;SDS011;28892;55.640;37.532;2022-08-01T08:22:15;3.78;;;2.50;;
43297;SDS011;28892;55.640;37.532;2022-08-01T08:24:41;4.88;;;2.55;;
43297;SDS011;28892;55.640;37.532;2022-08-01T08:27:07;6.20;;;2.58;;
43297;SDS011;28892;55.640;37.532;2022-08-01T08:29:32;3.20;;;2.40;;
43297;SDS011;28892;55.640;37.532;2022-08-01T08:31:59;4.53;;;2.42;;
43297;SDS011;28892;55.640;37.532;2022-08-01T08:34:26;5.15;;;2.63;;
43297;SDS011;28892;55.640;37.532;2022-08-01T08:36:52;7.45;;;2.47;;
43297;SDS011;28892;55.640;37.532;2022-08-01T08:39:19;5.88;;;2.20;;
43297;SDS011;28892;55.640;37.532;2022-08-01T08:41:45;3.20;;;2.47;;
43297;SDS011;28892;55.640;37.532;2022-08-01T08:44:12;5.55;;;2.53;;
43297;SDS011;28892;55.640;37.532;2022-08-01T08:46:40;2.58;;;2.20;;
43297;SDS011;28892;55.640;37.532;2022-08-01T08:49:07;3.63;;;2.30;;
43297;SDS011;28892;55.640;37.532;2022-08-01T08:51:34;5.57;;;2.17;;
43297;SDS011;28892;55.640;37.532;2022-08-01T08:54:03;5.38;;;2.47;;
43297;SDS011;28892;55.640;37.532;2022-08-01T08:56:30;3.13;;;2.30;;
43297;SDS011;28892;55.640;37.532;2022-08-01T08:58:59;4.00;;;2.60;;
43297;SDS011;28892;55.640;37.532;2022-08-01T09:01:26;3.78;;;2.03;;
43297;SDS011;28892;55.640;37.532;2022-08-01T09:03:52;4.53;;;2.35;;
43297;SDS011;28892;55.640;37.532;2022-08-01T09:06:19;4.65;;;2.30;;
43297;SDS011;28892;55.640;37.532;2022-08-01T09:08:45;2.95;;;2.30;;
43297;SDS011;28892;55.640;37.532;2022-08-01T09:11:11;5.45;;;2.10;;
43297;SDS011;28892;55.640;37.532;2022-08-01T09:13:37;4.78;;;2.28;;
43297;SDS011;28892;55.640;37.532;2022-08-01T09:16:02;2.80;;;2.03;;
43297;SDS011;28892;55.640;37.532;2022-08-01T09:18:37;4.70;;;2.10;;
43297;SDS011;28892;55.640;37.532;2022-08-01T09:23:48;3.80;;;1.80;;
43297;SDS011;28892;55.640;37.532;2022-08-01T09:26:40;2.55;;;1.90;;
43297;SDS011;28892;55.640;37.532;2022-08-01T09:29:05;7.82;;;2.25;;
43297;SDS011;28892;55.640;37.532;2022-08-01T09:31:42;3.83;;;2.08;;
43297;SDS011;28892;55.640;37.532;2022-08-01T09:34:09;3.03;;;1.60;;
43297;SDS011;28892;55.640;37.532;2022-08-01T09:39:25;3.78;;;1.67;;
43297;SDS011;28892;55.640;37.532;2022-08-01T09:41:53;2.85;;;1.90;;
43297;SDS011;28892;55.640;37.532;2022-08-01T09:44:36;5.25;;;1.65;;
43297;SDS011;28892;55.640;37.532;2022-08-01T09:47:08;2.75;;;1.70;;
43297;SDS011;28892;55.640;37.532;2022-08-01T09:49:35;1.83;;;1.67;;
43297;SDS011;28892;55.640;37.532;2022-08-01T09:52:16;2.47;;;1.63;;
43297;SDS011;28892;55.640;37.532;2022-08-01T09:54:51;4.28;;;1.90;;
43297;SDS011;28892;55.640;37.532;2022-08-01T09:57:25;2.75;;;2.03;;
43297;SDS011;28892;55.640;37.532;2022-08-01T09:59:53;2.97;;;1.80;;
43297;SDS011;28892;55.640;37.532;2022-08-01T10:02:34;1.98;;;1.60;;
43297;SDS011;28892;55.640;37.532;2022-08-01T10:05:02;2.83;;;1.53;;
43297;SDS011;28892;55.640;37.532;2022-08-01T10:07:30;2.00;;;1.73;;
43297;SDS011;28892;55.640;37.532;2022-08-01T10:09:55;3.20;;;1.77;;
43297;SDS011;28892;55.640;37.532;2022-08-01T10:12:34;2.33;;;1.90;;
43297;SDS011;28892;55.640;37.532;2022-08-01T10:15:00;2.80;;;1.80;;
43297;SDS011;28892;55.640;37.532;2022-08-01T10:17:28;2.63;;;1.70;;
43297;SDS011;28892;55.640;37.532;2022-08-01T10:19:54;1.95;;;1.70;;
43297;SDS011;28892;55.640;37.532;2022-08-01T10:22:22;4.38;;;1.80;;
43297;SDS011;28892;55.640;37.532;2022-08-01T10:24:50;2.53;;;1.80;;
43297;SDS011;28892;55.640;37.532;2022-08-01T10:27:20;2.75;;;1.55;;
43297;SDS011;28892;55.640;37.532;2022-08-01T10:29:59;2.90;;;1.70;;
43297;SDS011;28892;55.640;37.532;2022-08-01T10:32:31;2.53;;;1.90;;
43297;SDS011;28892;55.640;37.532;2022-08-01T10:34:58;1.83;;;1.60;;
43297;SDS011;28892;55.640;37.532;2022-08-01T10:37:25;2.58;;;2.10;;
43297;SDS011;28892;55.640;37.532;2022-08-01T10:39:51;2.40;;;1.92;;
43297;SDS011;28892;55.640;37.532;2022-08-01T10:42:17;2.63;;;2.05;;
43297;SDS011;28892;55.640;37.532;2022-08-01T10:44:43;4.28;;;1.90;;
43297;SDS011;28892;55.640;37.532;2022-08-01T10:47:14;3.38;;;2.00;;
43297;SDS011;28892;55.640;37.532;2022-08-01T10:49:45;2.05;;;1.77;;
43297;SDS011;28892;55.640;37.532;2022-08-01T10:52:16;3.47;;;1.85;;
43297;SDS011;28892;55.640;37.532;2022-08-01T10:54:43;3.05;;;1.92;;
43297;SDS011;28892;55.640;37.532;2022-08-01T10:57:09;3.00;;;2.15;;
43297;SDS011;28892;55.640;37.532;2022-08-01T10:59:47;2.70;;;2.30;;
43297;SDS011;28892;55.640;37.532;2022-08-01T11:02:25;4.40;;;2.00;;
43297;SDS011;28892;55.640;37.532;2022-08-01T11:07:40;2.72;;;2.20;;
43297;SDS011;28892;55.640;37.532;2022-08-01T11:12:45;4.72;;;2.72;;
43297;SDS011;28892;55.640;37.532;2022-08-01T11:17:41;4.30;;;2.30;;
43297;SDS011;28892;55.640;37.532;2022-08-01T11:25:24;5.65;;;2.40;;
43297;SDS011;28892;55.640;37.532;2022-08-01T11:30:42;3.10;;;2.10;;
43297;SDS011;28892;55.640;37.532;2022-08-01T11:33:15;3.72;;;2.33;;
43297;SDS011;28892;55.640;37.532;2022-08-01T11:41:23;4.60;;;2.00;;
43297;SDS011;28892;55.640;37.532;2022-08-01T11:43:56;3.45;;;2.15;;
43297;SDS011;28892;55.640;37.532;2022-08-01T11:46:49;3.55;;;2.42;;
43297;SDS011;28892;55.640;37.532;2022-08-01T11:51:57;3.10;;;2.22;;
43297;SDS011;28892;55.640;37.532;2022-08-01T11:54:25;2.33;;;2.00;;
43297;SDS011;28892;55.640;37.532;2022-08-01T11:56:56;4.88;;;2.53;;
43297;SDS011;28892;55.640;37.532;2022-08-01T11:59:26;3.85;;;2.47;;
43297;SDS011;28892;55.640;37.532;2022-08-01T12:01:52;4.18;;;2.00;;
43297;SDS011;28892;55.640;37.532;2022-08-01T12:04:18;3.80;;;2.40;;
43297;SDS011;28892;55.640;37.532;2022-08-01T12:06:44;4.47;;;2.30;;
43297;SDS011;28892;55.640;37.532;2022-08-01T12:09:18;2.90;;;2.00;;
43297;SDS011;28892;55.640;37.532;2022-08-01T12:11:48;3.13;;;2.25;;
43297;SDS011;28892;55.640;37.532;2022-08-01T12:14:18;3.63;;;2.65;;
43297;SDS011;28892;55.640;37.532;2022-08-01T12:16:52;2.77;;;2.43;;
43297;SDS011;28892;55.640;37.532;2022-08-01T12:19:23;5.10;;;2.30;;
43297;SDS011;28892;55.640;37.532;2022-08-01T12:22:05;2.78;;;2.20;;
43297;SDS011;28892;55.640;37.532;2022-08-01T12:24:35;6.90;;;2.10;;
43297;SDS011;28892;55.640;37.532;2022-08-01T12:27:03;4.38;;;2.40;;
43297;SDS011;28892;55.640;37.532;2022-08-01T12:34:51;5.47;;;2.60;;
43297;SDS011;28892;55.640;37.532;2022-08-01T12:37:19;4.30;;;2.08;;
43297;SDS011;28892;55.640;37.532;2022-08-01T12:39:46;4.38;;;2.17;;
43297;SDS011;28892;55.640;37.532;2022-08-01T12:42:12;6.22;;;2.03;;
43297;SDS011;28892;55.640;37.532;2022-08-01T12:44:38;5.57;;;2.08;;
43297;SDS011;28892;55.640;37.532;2022-08-01T12:47:06;3.97;;;2.20;;
43297;SDS011;28892;55.640;37.532;2022-08-01T12:49:33;3.17;;;2.35;;
43297;SDS011;28892;55.640;37.532;2022-08-01T12:52:01;2.83;;;2.05;;
43297;SDS011;28892;55.640;37.532;2022-08-01T12:54:28;2.80;;;2.35;;
43297;SDS011;28892;55.640;37.532;2022-08-01T12:56:54;5.00;;;2.58;;
43297;SDS011;28892;55.640;37.532;2022-08-01T12:59:27;3.53;;;2.50;;
43297;SDS011;28892;55.640;37.532;2022-08-01T13:01:54;6.13;;;2.30;;
43297;SDS011;28892;55.640;37.532;2022-08-01T13:04:22;6.28;;;2.13;;
43297;SDS011;28892;55.640;37.532;2022-08-01T13:06:48;6.95;;;2.75;;
43297;SDS011;28892;55.640;37.532;2022-08-01T13:09:19;5.63;;;2.78;;
43297;SDS011;28892;55.640;37.532;2022-08-01T13:11:47;3.95;;;2.70;;
43297;SDS011;28892;55.640;37.532;2022-08-01T13:14:27;6.28;;;2.60;;
43297;SDS011;28892;55.640;37.532;2022-08-01T13:16:54;7.43;;;2.40;;
43297;SDS011;28892;55.640;37.532;2022-08-01T13:19:20;6.90;;;2.50;;
43297;SDS011;28892;55.640;37.532;2022-08-01T13:21:55;3.78;;;2.10;;
43297;SDS011;28892;55.640;37.532;2022-08-01T13:24:25;4.05;;;2.50;;
43297;SDS011;28892;55.640;37.532;2022-08-01T13:26:53;3.78;;;2.70;;
43297;SDS011;28892;55.640;37.532;2022-08-01T13:29:46;4.30;;;2.40;;
43297;SDS011;28892;55.640;37.532;2022-08-01T13:32:16;3.42;;;2.60;;
43297;SDS011;28892;55.640;37.532;2022-08-01T13:34:44;5.60;;;2.47;;
43297;SDS011;28892;55.640;37.532;2022-08-01T13:37:10;3.00;;;2.15;;
43297;SDS011;28892;55.640;37.532;2022-08-01T13:39:35;3.85;;;2.47;;
43297;SDS011;28892;55.640;37.532;2022-08-01T13:42:09;3.75;;;2.33;;
43297;SDS011;28892;55.640;37.532;2022-08-01T13:44:36;5.13;;;2.70;;
43297;SDS011;28892;55.640;37.532;2022-08-01T13:47:03;2.88;;;2.45;;
43297;SDS011;28892;55.640;37.532;2022-08-01T13:49:29;6.70;;;2.35;;
43297;SDS011;28892;55.640;37.532;2022-08-01T13:51:55;6.18;;;2.50;;
43297;SDS011;28892;55.640;37.532;2022-08-01T13:54:21;3.40;;;2.38;;
43297;SDS011;28892;55.640;37.532;2022-08-01T13:56:48;3.22;;;2.42;;
43297;SDS011;28892;55.640;37.532;2022-08-01T13:59:14;4.13;;;2.30;;
43297;SDS011;28892;55.640;37.532;2022-08-01T14:01:40;4.32;;;2.40;;
43297;SDS011;28892;55.640;37.532;2022-08-01T14:04:06;3.08;;;2.10;;
43297;SDS011;28892;55.640;37.532;2022-08-01T14:06:32;5.32;;;2.70;;
43297;SDS011;28892;55.640;37.532;2022-08-01T14:08:58;5.43;;;2.70;;
43297;SDS011;28892;55.640;37.532;2022-08-01T14:11:23;4.95;;;2.42;;
43297;SDS011;28892;55.640;37.532;2022-08-01T14:13:49;4.05;;;2.30;;
43297;SDS011;28892;55.640;37.532;2022-08-01T14:16:16;5.38;;;2.38;;
43297;SDS011;28892;55.640;37.532;2022-08-01T14:18:42;4.80;;;2.30;;
43297;SDS011;28892;55.640;37.532;2022-08-01T14:21:07;4.20;;;2.00;;
43297;SDS011;28892;55.640;37.532;2022-08-01T14:23:33;2.25;;;2.05;;
43297;SDS011;28892;55.640;37.532;2022-08-01T14:25:59;7.38;;;2.20;;
43297;SDS011;28892;55.640;37.532;2022-08-01T14:28:25;6.20;;;2.28;;
43297;SDS011;28892;55.640;37.532;2022-08-01T14:30:52;4.00;;;2.38;;
43297;SDS011;28892;55.640;37.532;2022-08-01T14:33:20;5.03;;;2.20;;
43297;SDS011;28892;55.640;37.532;2022-08-01T14:35:46;5.97;;;2.40;;
43297;SDS011;28892;55.640;37.532;2022-08-01T14:38:12;4.53;;;2.13;;
43297;SDS011;28892;55.640;37.532;2022-08-01T14:40:38;4.80;;;2.10;;
43297;SDS011;28892;55.640;37.532;2022-08-01T14:43:04;3.28;;;2.28;;
43297;SDS011;28892;55.640;37.532;2022-08-01T14:45:29;3.08;;;2.33;;
43297;SDS011;28892;55.640;37.532;2022-08-01T14:47:55;3.42;;;2.38;;
43297;SDS011;28892;55.640;37.532;2022-08-01T14:50:21;4.05;;;1.98;;
43297;SDS011;28892;55.640;37.532;2022-08-01T14:52:47;3.25;;;2.00;;
43297;SDS011;28892;55.640;37.532;2022-08-01T14:55:12;3.35;;;2.10;;
43297;SDS011;28892;55.640;37.532;2022-08-01T14:57:39;3.47;;;1.90;;
43297;SDS011;28892;55.640;37.532;2022-08-01T15:00:06;6.70;;;2.10;;
43297;SDS011;28892;55.640;37.532;2022-08-01T15:02:35;3.00;;;2.15;;
43297;SDS011;28892;55.640;37.532;2022-08-01T15:05:01;2.10;;;1.88;;
43297;SDS011;28892;55.640;37.532;2022-08-01T15:07:28;3.67;;;2.10;;
43297;SDS011;28892;55.640;37.532;2022-08-01T15:09:54;5.88;;;2.20;;
43297;SDS011;28892;55.640;37.532;2022-08-01T15:12:20;4.18;;;2.10;;
43297;SDS011;28892;55.640;37.532;2022-08-01T15:14:45;2.72;;;2.00;;
43297;SDS011;28892;55.640;37.532;2022-08-01T15:17:18;2.30;;;2.10;;
43297;SDS011;28892;55.640;37.532;2022-08-01T15:19:53;2.45;;;2.00;;
43297;SDS011;28892;55.640;37.532;2022-08-01T15:22:20;4.43;;;2.08;;
43297;SDS011;28892;55.640;37.532;2022-08-01T15:24:47;3.40;;;2.00;;
43297;SDS011;28892;55.640;37.532;2022-08-01T15:27:13;3.42;;;2.00;;
43297;SDS011;28892;55.640;37.532;2022-08-01T15:29:39;4.13;;;2.10;;
43297;SDS011;28892;55.640;37.532;2022-08-01T15:32:05;4.68;;;2.85;;
43297;SDS011;28892;55.640;37.532;2022-08-01T15:34:36;3.45;;;2.13;;